sensor_id;sensor_type;location;lat;lon;timestamp;P1;durP1;ratioP1;P2;durP2;ratioP2
7985;SDS011;4038;42.612;23.066;2022-12-29T00:02:20;52.67;;;46.80;;
7985;SDS011;4038;42.612;23.066;2022-12-29T00:04:46;50.87;;;44.60;;
7985;SDS011;4038;42.612;23.066;2022-12-29T00:07:11;59.63;;;46.97;;
7985;SDS011;4038;42.612;23.066;2022-12-29T00:09:37;52.73;;;46.60;;
7985;SDS011;4038;42.612;23.066;2022-12-29T00:12:03;54.43;;;45.73;;
7985;SDS011;4038;42.612;23.066;2022-12-29T00:14:29;51.40;;;45.90;;
7985;SDS011;4038;42.612;23.066;2022-12-29T00:17:14;50.47;;;44.93;;
7985;SDS011;4038;42.612;23.066;2022-12-29T00:19:39;50.97;;;45.27;;
7985;SDS011;4038;42.612;23.066;2022-12-29T00:22:24;54.93;;;48.00;;
7985;SDS011;4038;42.612;23.066;2022-12-29T00:25:09;51.97;;;46.20;;
7985;SDS011;4038;42.612;23.066;2022-12-29T00:27:54;52.97;;;47.17;;
7985;SDS011;4038;42.612;23.066;2022-12-29T00:30:38;50.70;;;45.03;;
7985;SDS011;4038;42.612;23.066;2022-12-29T00:33:26;50.70;;;43.63;;
7985;SDS011;4038;42.612;23.066;2022-12-29T00:38:38;49.47;;;44.30;;
7985;SDS011;4038;42.612;23.066;2022-12-29T00:41:27;59.17;;;49.67;;
7985;SDS011;4038;42.612;23.066;2022-12-29T00:44:12;58.73;;;49.80;;
7985;SDS011;4038;42.612;23.066;2022-12-29T00:46:39;60.43;;;48.17;;
7985;SDS011;4038;42.612;23.066;2022-12-29T00:49:06;55.77;;;47.93;;
7985;SDS011;4038;42.612;23.066;2022-12-29T00:51:52;51.03;;;45.03;;
7985;SDS011;4038;42.612;23.066;2022-12-29T00:54:19;50.97;;;45.67;;
7985;SDS011;4038;42.612;23.066;2022-12-29T00:56:48;51.57;;;44.70;;
7985;SDS011;4038;42.612;23.066;2022-12-29T00:59:14;49.07;;;43.77;;
7985;SDS011;4038;42.612;23.066;2022-12-29T01:01:40;49.50;;;44.27;;
7985;SDS011;4038;42.612;23.066;2022-12-29T01:04:06;48.97;;;43.77;;
7985;SDS011;4038;42.612;23.066;2022-12-29T01:06:33;47.03;;;41.90;;
7985;SDS011;4038;42.612;23.066;2022-12-29T01:08:59;45.53;;;40.63;;
7985;SDS011;4038;42.612;23.066;2022-12-29T01:11:43;44.97;;;40.47;;
7985;SDS011;4038;42.612;23.066;2022-12-29T01:14:09;44.80;;;40.40;;
7985;SDS011;4038;42.612;23.066;2022-12-29T01:16:34;44.17;;;39.87;;
7985;SDS011;4038;42.612;23.066;2022-12-29T01:19:01;44.00;;;39.10;;
7985;SDS011;4038;42.612;23.066;2022-12-29T01:21:27;43.27;;;39.17;;
7985;SDS011;4038;42.612;23.066;2022-12-29T01:23:53;44.50;;;39.93;;
7985;SDS011;4038;42.612;23.066;2022-12-29T01:26:18;45.23;;;40.63;;
7985;SDS011;4038;42.612;23.066;2022-12-29T01:28:44;43.33;;;39.00;;
7985;SDS011;4038;42.612;23.066;2022-12-29T01:31:10;45.50;;;40.63;;
7985;SDS011;4038;42.612;23.066;2022-12-29T01:33:37;44.17;;;39.53;;
7985;SDS011;4038;42.612;23.066;2022-12-29T01:36:04;44.00;;;39.77;;
7985;SDS011;4038;42.612;23.066;2022-12-29T01:38:30;45.57;;;40.73;;
7985;SDS011;4038;42.612;23.066;2022-12-29T01:40:56;49.93;;;44.63;;
7985;SDS011;4038;42.612;23.066;2022-12-29T01:43:37;47.90;;;42.90;;
7985;SDS011;4038;42.612;23.066;2022-12-29T01:46:32;48.87;;;43.57;;
7985;SDS011;4038;42.612;23.066;2022-12-29T01:51:43;53.13;;;47.53;;
7985;SDS011;4038;42.612;23.066;2022-12-29T01:54:25;50.80;;;45.27;;
7985;SDS011;4038;42.612;23.066;2022-12-29T01:56:55;48.63;;;43.63;;
7985;SDS011;4038;42.612;23.066;2022-12-29T01:59:24;54.03;;;48.40;;
7985;SDS011;4038;42.612;23.066;2022-12-29T02:01:55;53.87;;;47.10;;
7985;SDS011;4038;42.612;23.066;2022-12-29T02:04:21;52.30;;;46.60;;
7985;SDS011;4038;42.612;23.066;2022-12-29T02:06:53;53.57;;;47.23;;
7985;SDS011;4038;42.612;23.066;2022-12-29T02:09:23;51.20;;;46.00;;
7985;SDS011;4038;42.612;23.066;2022-12-29T02:11:48;49.70;;;44.60;;
7985;SDS011;4038;42.612;23.066;2022-12-29T02:14:14;48.90;;;43.90;;
7985;SDS011;4038;42.612;23.066;2022-12-29T02:31:45;47.70;;;42.80;;
7985;SDS011;4038;42.612;23.066;2022-12-29T02:36:45;53.97;;;48.13;;
7985;SDS011;4038;42.612;23.066;2022-12-29T02:51:18;45.70;;;41.10;;
7985;SDS011;4038;42.612;23.066;2022-12-29T02:53:28;46.70;;;41.77;;
7985;SDS011;4038;42.612;23.066;2022-12-29T02:56:13;49.10;;;44.20;;
7985;SDS011;4038;42.612;23.066;2022-12-29T02:58:39;48.73;;;43.60;;
7985;SDS011;4038;42.612;23.066;2022-12-29T03:01:26;47.17;;;42.17;;
7985;SDS011;4038;42.612;23.066;2022-12-29T03:15:24;43.23;;;38.83;;
7985;SDS011;4038;42.612;23.066;2022-12-29T03:18:25;44.03;;;39.50;;
7985;SDS011;4038;42.612;23.066;2022-12-29T03:23:42;44.80;;;40.27;;
7985;SDS011;4038;42.612;23.066;2022-12-29T03:26:13;42.90;;;38.37;;
7985;SDS011;4038;42.612;23.066;2022-12-29T03:28:44;44.03;;;39.50;;
7985;SDS011;4038;42.612;23.066;2022-12-29T03:31:13;43.60;;;39.50;;
7985;SDS011;4038;42.612;23.066;2022-12-29T03:33:40;45.77;;;41.17;;
7985;SDS011;4038;42.612;23.066;2022-12-29T03:36:07;44.23;;;39.90;;
7985;SDS011;4038;42.612;23.066;2022-12-29T03:41:10;43.87;;;39.60;;
7985;SDS011;4038;42.612;23.066;2022-12-29T03:43:39;43.43;;;38.77;;
7985;SDS011;4038;42.612;23.066;2022-12-29T03:46:05;45.07;;;40.47;;
7985;SDS011;4038;42.612;23.066;2022-12-29T03:48:30;42.90;;;38.70;;
7985;SDS011;4038;42.612;23.066;2022-12-29T03:50:57;45.03;;;40.60;;
7985;SDS011;4038;42.612;23.066;2022-12-29T03:53:26;47.13;;;42.17;;
7985;SDS011;4038;42.612;23.066;2022-12-29T03:55:51;48.47;;;43.37;;
7985;SDS011;4038;42.612;23.066;2022-12-29T03:58:16;48.63;;;43.67;;
7985;SDS011;4038;42.612;23.066;2022-12-29T04:00:42;48.60;;;43.70;;
7985;SDS011;4038;42.612;23.066;2022-12-29T04:03:07;51.80;;;46.40;;
7985;SDS011;4038;42.612;23.066;2022-12-29T04:05:33;52.40;;;47.07;;
7985;SDS011;4038;42.612;23.066;2022-12-29T04:07:58;50.53;;;45.57;;
7985;SDS011;4038;42.612;23.066;2022-12-29T04:10:23;56.97;;;50.63;;
7985;SDS011;4038;42.612;23.066;2022-12-29T04:12:49;53.40;;;47.67;;
7985;SDS011;4038;42.612;23.066;2022-12-29T04:15:14;53.90;;;48.07;;
7985;SDS011;4038;42.612;23.066;2022-12-29T04:17:41;49.10;;;44.00;;
7985;SDS011;4038;42.612;23.066;2022-12-29T04:20:06;48.10;;;43.17;;
7985;SDS011;4038;42.612;23.066;2022-12-29T04:22:57;46.10;;;41.43;;
7985;SDS011;4038;42.612;23.066;2022-12-29T04:25:26;44.73;;;40.33;;
7985;SDS011;4038;42.612;23.066;2022-12-29T04:27:52;44.20;;;39.97;;
7985;SDS011;4038;42.612;23.066;2022-12-29T04:30:17;50.20;;;45.20;;
7985;SDS011;4038;42.612;23.066;2022-12-29T04:32:43;45.27;;;40.60;;
7985;SDS011;4038;42.612;23.066;2022-12-29T04:35:08;45.90;;;41.53;;
7985;SDS011;4038;42.612;23.066;2022-12-29T04:37:33;43.57;;;39.37;;
7985;SDS011;4038;42.612;23.066;2022-12-29T04:39:59;42.87;;;38.77;;
7985;SDS011;4038;42.612;23.066;2022-12-29T04:42:24;42.53;;;38.43;;
7985;SDS011;4038;42.612;23.066;2022-12-29T04:44:49;41.93;;;37.97;;
7985;SDS011;4038;42.612;23.066;2022-12-29T04:47:15;43.70;;;39.43;;
7985;SDS011;4038;42.612;23.066;2022-12-29T04:49:40;45.37;;;40.97;;
7985;SDS011;4038;42.612;23.066;2022-12-29T04:52:06;50.67;;;45.33;;
7985;SDS011;4038;42.612;23.066;2022-12-29T04:54:33;48.97;;;43.80;;
7985;SDS011;4038;42.612;23.066;2022-12-29T04:56:58;50.70;;;45.63;;
7985;SDS011;4038;42.612;23.066;2022-12-29T04:59:24;50.23;;;45.10;;
7985;SDS011;4038;42.612;23.066;2022-12-29T05:01:49;48.83;;;43.53;;
7985;SDS011;4038;42.612;23.066;2022-12-29T05:04:14;50.23;;;43.47;;
7985;SDS011;4038;42.612;23.066;2022-12-29T05:06:41;49.47;;;44.53;;
7985;SDS011;4038;42.612;23.066;2022-12-29T05:09:06;48.93;;;44.00;;
7985;SDS011;4038;42.612;23.066;2022-12-29T05:11:32;50.80;;;45.50;;
7985;SDS011;4038;42.612;23.066;2022-12-29T05:13:57;52.03;;;46.47;;
7985;SDS011;4038;42.612;23.066;2022-12-29T05:16:23;51.87;;;46.53;;
7985;SDS011;4038;42.612;23.066;2022-12-29T05:18:48;49.93;;;44.67;;
7985;SDS011;4038;42.612;23.066;2022-12-29T05:21:13;51.10;;;45.70;;
7985;SDS011;4038;42.612;23.066;2022-12-29T05:23:39;49.10;;;43.77;;
7985;SDS011;4038;42.612;23.066;2022-12-29T05:26:04;48.77;;;43.27;;
7985;SDS011;4038;42.612;23.066;2022-12-29T05:28:29;43.60;;;39.20;;
7985;SDS011;4038;42.612;23.066;2022-12-29T05:30:55;42.50;;;38.13;;
7985;SDS011;4038;42.612;23.066;2022-12-29T05:33:20;48.63;;;43.43;;
7985;SDS011;4038;42.612;23.066;2022-12-29T05:35:46;44.13;;;39.60;;
7985;SDS011;4038;42.612;23.066;2022-12-29T05:38:11;45.17;;;40.57;;
7985;SDS011;4038;42.612;23.066;2022-12-29T05:40:37;50.30;;;44.93;;
7985;SDS011;4038;42.612;23.066;2022-12-29T05:43:02;55.93;;;48.77;;
7985;SDS011;4038;42.612;23.066;2022-12-29T05:45:28;51.17;;;44.20;;
7985;SDS011;4038;42.612;23.066;2022-12-29T05:47:53;44.50;;;40.00;;
7985;SDS011;4038;42.612;23.066;2022-12-29T05:50:18;45.07;;;40.73;;
7985;SDS011;4038;42.612;23.066;2022-12-29T05:52:44;44.70;;;40.37;;
7985;SDS011;4038;42.612;23.066;2022-12-29T05:55:09;42.70;;;38.40;;
7985;SDS011;4038;42.612;23.066;2022-12-29T05:57:35;41.97;;;37.87;;
7985;SDS011;4038;42.612;23.066;2022-12-29T06:00:01;40.70;;;36.80;;
7985;SDS011;4038;42.612;23.066;2022-12-29T06:02:27;41.40;;;37.40;;
7985;SDS011;4038;42.612;23.066;2022-12-29T06:04:53;39.67;;;35.70;;
7985;SDS011;4038;42.612;23.066;2022-12-29T06:07:18;41.07;;;37.00;;
7985;SDS011;4038;42.612;23.066;2022-12-29T06:09:46;40.57;;;36.67;;
7985;SDS011;4038;42.612;23.066;2022-12-29T06:12:11;40.80;;;36.97;;
7985;SDS011;4038;42.612;23.066;2022-12-29T06:14:36;40.83;;;36.93;;
7985;SDS011;4038;42.612;23.066;2022-12-29T06:17:02;40.27;;;36.33;;
7985;SDS011;4038;42.612;23.066;2022-12-29T06:19:27;40.13;;;36.53;;
7985;SDS011;4038;42.612;23.066;2022-12-29T06:21:53;41.37;;;37.43;;
7985;SDS011;4038;42.612;23.066;2022-12-29T06:24:18;41.63;;;37.73;;
7985;SDS011;4038;42.612;23.066;2022-12-29T06:26:44;42.37;;;38.23;;
7985;SDS011;4038;42.612;23.066;2022-12-29T06:29:09;40.73;;;36.80;;
7985;SDS011;4038;42.612;23.066;2022-12-29T06:31:35;41.03;;;37.20;;
7985;SDS011;4038;42.612;23.066;2022-12-29T06:34:00;39.73;;;36.13;;
7985;SDS011;4038;42.612;23.066;2022-12-29T06:36:26;41.90;;;37.80;;
7985;SDS011;4038;42.612;23.066;2022-12-29T06:38:51;39.87;;;36.17;;
7985;SDS011;4038;42.612;23.066;2022-12-29T06:41:17;41.60;;;37.60;;
7985;SDS011;4038;42.612;23.066;2022-12-29T06:43:44;40.50;;;36.70;;
7985;SDS011;4038;42.612;23.066;2022-12-29T06:46:09;41.03;;;37.00;;
7985;SDS011;4038;42.612;23.066;2022-12-29T06:48:35;42.13;;;38.33;;
7985;SDS011;4038;42.612;23.066;2022-12-29T06:51:00;42.80;;;38.80;;
7985;SDS011;4038;42.612;23.066;2022-12-29T06:53:26;42.73;;;38.70;;
7985;SDS011;4038;42.612;23.066;2022-12-29T06:55:51;41.57;;;37.67;;
7985;SDS011;4038;42.612;23.066;2022-12-29T06:58:17;41.90;;;37.97;;
7985;SDS011;4038;42.612;23.066;2022-12-29T07:00:42;41.00;;;37.23;;
7985;SDS011;4038;42.612;23.066;2022-12-29T07:03:07;39.90;;;36.17;;
7985;SDS011;4038;42.612;23.066;2022-12-29T07:05:33;42.00;;;38.00;;
7985;SDS011;4038;42.612;23.066;2022-12-29T07:07:58;42.13;;;38.03;;
7985;SDS011;4038;42.612;23.066;2022-12-29T07:10:24;44.50;;;40.30;;
7985;SDS011;4038;42.612;23.066;2022-12-29T07:12:50;44.70;;;40.20;;
7985;SDS011;4038;42.612;23.066;2022-12-29T07:15:16;51.00;;;45.47;;
7985;SDS011;4038;42.612;23.066;2022-12-29T07:17:41;52.87;;;47.03;;
7985;SDS011;4038;42.612;23.066;2022-12-29T07:20:07;54.73;;;48.33;;
7985;SDS011;4038;42.612;23.066;2022-12-29T07:22:32;54.27;;;48.37;;
7985;SDS011;4038;42.612;23.066;2022-12-29T07:24:58;58.13;;;51.93;;
7985;SDS011;4038;42.612;23.066;2022-12-29T07:27:23;61.83;;;53.07;;
7985;SDS011;4038;42.612;23.066;2022-12-29T07:29:49;61.60;;;55.07;;
7985;SDS011;4038;42.612;23.066;2022-12-29T07:32:14;56.70;;;50.70;;
7985;SDS011;4038;42.612;23.066;2022-12-29T07:34:40;53.40;;;47.90;;
7985;SDS011;4038;42.612;23.066;2022-12-29T07:37:05;44.60;;;40.40;;
7985;SDS011;4038;42.612;23.066;2022-12-29T07:39:31;41.53;;;37.40;;
7985;SDS011;4038;42.612;23.066;2022-12-29T07:41:56;41.50;;;37.70;;
7985;SDS011;4038;42.612;23.066;2022-12-29T07:44:21;42.33;;;38.33;;
7985;SDS011;4038;42.612;23.066;2022-12-29T07:46:47;41.17;;;37.23;;
7985;SDS011;4038;42.612;23.066;2022-12-29T07:49:12;41.43;;;37.70;;
7985;SDS011;4038;42.612;23.066;2022-12-29T07:51:38;39.57;;;36.13;;
7985;SDS011;4038;42.612;23.066;2022-12-29T07:54:03;42.03;;;38.20;;
7985;SDS011;4038;42.612;23.066;2022-12-29T07:56:29;42.17;;;38.57;;
7985;SDS011;4038;42.612;23.066;2022-12-29T07:58:54;43.17;;;39.13;;
7985;SDS011;4038;42.612;23.066;2022-12-29T08:01:20;41.30;;;37.70;;
7985;SDS011;4038;42.612;23.066;2022-12-29T08:03:46;41.30;;;37.70;;
7985;SDS011;4038;42.612;23.066;2022-12-29T08:06:11;42.93;;;39.23;;
7985;SDS011;4038;42.612;23.066;2022-12-29T08:08:37;43.30;;;39.40;;
7985;SDS011;4038;42.612;23.066;2022-12-29T08:11:03;40.97;;;37.43;;
7985;SDS011;4038;42.612;23.066;2022-12-29T08:13:28;42.23;;;38.43;;
7985;SDS011;4038;42.612;23.066;2022-12-29T08:15:54;42.73;;;38.87;;
7985;SDS011;4038;42.612;23.066;2022-12-29T08:18:19;40.47;;;36.90;;
7985;SDS011;4038;42.612;23.066;2022-12-29T08:20:45;41.40;;;37.60;;
7985;SDS011;4038;42.612;23.066;2022-12-29T08:23:10;42.80;;;38.80;;
7985;SDS011;4038;42.612;23.066;2022-12-29T08:25:36;40.50;;;36.83;;
7985;SDS011;4038;42.612;23.066;2022-12-29T08:28:01;40.77;;;37.13;;
7985;SDS011;4038;42.612;23.066;2022-12-29T08:30:27;41.53;;;37.73;;
7985;SDS011;4038;42.612;23.066;2022-12-29T08:32:52;39.53;;;35.93;;
7985;SDS011;4038;42.612;23.066;2022-12-29T08:35:18;39.87;;;36.33;;
7985;SDS011;4038;42.612;23.066;2022-12-29T08:37:44;41.20;;;37.60;;
7985;SDS011;4038;42.612;23.066;2022-12-29T08:40:09;40.80;;;37.30;;
7985;SDS011;4038;42.612;23.066;2022-12-29T08:42:35;38.40;;;35.10;;
7985;SDS011;4038;42.612;23.066;2022-12-29T08:45:00;39.40;;;36.00;;
7985;SDS011;4038;42.612;23.066;2022-12-29T08:47:26;40.87;;;37.17;;
7985;SDS011;4038;42.612;23.066;2022-12-29T08:49:52;41.47;;;37.67;;
7985;SDS011;4038;42.612;23.066;2022-12-29T08:52:18;41.60;;;37.97;;
7985;SDS011;4038;42.612;23.066;2022-12-29T08:54:43;39.35;;;35.80;;
7985;SDS011;4038;42.612;23.066;2022-12-29T08:57:09;40.43;;;36.70;;
7985;SDS011;4038;42.612;23.066;2022-12-29T08:59:34;41.58;;;37.67;;
7985;SDS011;4038;42.612;23.066;2022-12-29T09:02:00;40.15;;;36.55;;
7985;SDS011;4038;42.612;23.066;2022-12-29T09:04:26;39.08;;;35.38;;
7985;SDS011;4038;42.612;23.066;2022-12-29T09:06:52;41.93;;;38.10;;
7985;SDS011;4038;42.612;23.066;2022-12-29T09:09:19;41.80;;;37.83;;
7985;SDS011;4038;42.612;23.066;2022-12-29T09:11:45;40.92;;;37.00;;
7985;SDS011;4038;42.612;23.066;2022-12-29T09:14:11;40.17;;;36.65;;
7985;SDS011;4038;42.612;23.066;2022-12-29T09:16:37;42.20;;;38.30;;
7985;SDS011;4038;42.612;23.066;2022-12-29T09:19:02;42.00;;;38.25;;
7985;SDS011;4038;42.612;23.066;2022-12-29T09:21:28;43.78;;;39.85;;
7985;SDS011;4038;42.612;23.066;2022-12-29T09:23:53;40.55;;;36.97;;
7985;SDS011;4038;42.612;23.066;2022-12-29T09:26:19;41.58;;;37.83;;
7985;SDS011;4038;42.612;23.066;2022-12-29T09:28:44;40.42;;;36.85;;
7985;SDS011;4038;42.612;23.066;2022-12-29T09:31:10;42.15;;;38.05;;
7985;SDS011;4038;42.612;23.066;2022-12-29T09:33:36;40.78;;;37.00;;
7985;SDS011;4038;42.612;23.066;2022-12-29T09:36:02;39.47;;;35.80;;
7985;SDS011;4038;42.612;23.066;2022-12-29T09:38:28;40.13;;;36.38;;
7985;SDS011;4038;42.612;23.066;2022-12-29T09:40:56;39.10;;;35.60;;
7985;SDS011;4038;42.612;23.066;2022-12-29T09:46:29;41.17;;;37.28;;
7985;SDS011;4038;42.612;23.066;2022-12-29T09:52:05;42.13;;;38.33;;
7985;SDS011;4038;42.612;23.066;2022-12-29T09:57:23;42.10;;;38.42;;
7985;SDS011;4038;42.612;23.066;2022-12-29T09:59:59;40.40;;;36.72;;
7985;SDS011;4038;42.612;23.066;2022-12-29T10:02:40;40.20;;;36.50;;
7985;SDS011;4038;42.612;23.066;2022-12-29T10:11:29;39.13;;;35.65;;
7985;SDS011;4038;42.612;23.066;2022-12-29T10:13:49;36.60;;;33.35;;
7985;SDS011;4038;42.612;23.066;2022-12-29T10:19:15;39.13;;;35.55;;
7985;SDS011;4038;42.612;23.066;2022-12-29T10:24:25;37.70;;;34.40;;
7985;SDS011;4038;42.612;23.066;2022-12-29T10:26:54;39.05;;;35.33;;
7985;SDS011;4038;42.612;23.066;2022-12-29T10:29:56;41.55;;;37.75;;
7985;SDS011;4038;42.612;23.066;2022-12-29T10:32:27;39.47;;;35.75;;
7985;SDS011;4038;42.612;23.066;2022-12-29T10:35:11;39.42;;;35.85;;
7985;SDS011;4038;42.612;23.066;2022-12-29T10:37:44;42.55;;;38.45;;
7985;SDS011;4038;42.612;23.066;2022-12-29T10:40:27;39.78;;;36.10;;
7985;SDS011;4038;42.612;23.066;2022-12-29T10:42:59;41.00;;;36.85;;
7985;SDS011;4038;42.612;23.066;2022-12-29T10:45:33;43.20;;;38.92;;
7985;SDS011;4038;42.612;23.066;2022-12-29T10:48:00;40.50;;;36.80;;
7985;SDS011;4038;42.612;23.066;2022-12-29T10:50:31;41.08;;;37.00;;
7985;SDS011;4038;42.612;23.066;2022-12-29T10:52:58;40.92;;;36.95;;
7985;SDS011;4038;42.612;23.066;2022-12-29T10:55:36;39.78;;;35.90;;
7985;SDS011;4038;42.612;23.066;2022-12-29T10:58:06;39.38;;;35.67;;
7985;SDS011;4038;42.612;23.066;2022-12-29T11:00:36;41.63;;;37.72;;
7985;SDS011;4038;42.612;23.066;2022-12-29T11:08:17;38.95;;;35.17;;
7985;SDS011;4038;42.612;23.066;2022-12-29T11:10:46;35.72;;;32.60;;
7985;SDS011;4038;42.612;23.066;2022-12-29T11:13:27;36.53;;;33.15;;
7985;SDS011;4038;42.612;23.066;2022-12-29T11:15:55;40.17;;;36.35;;
7985;SDS011;4038;42.612;23.066;2022-12-29T11:18:26;37.15;;;34.05;;
7985;SDS011;4038;42.612;23.066;2022-12-29T11:20:58;36.55;;;33.45;;
7985;SDS011;4038;42.612;23.066;2022-12-29T11:23:38;38.25;;;35.03;;
7985;SDS011;4038;42.612;23.066;2022-12-29T11:26:07;38.15;;;34.83;;
7985;SDS011;4038;42.612;23.066;2022-12-29T11:28:38;36.90;;;33.60;;
7985;SDS011;4038;42.612;23.066;2022-12-29T11:31:05;37.88;;;34.65;;
7985;SDS011;4038;42.612;23.066;2022-12-29T11:33:32;39.08;;;35.17;;
7985;SDS011;4038;42.612;23.066;2022-12-29T11:36:04;36.55;;;33.55;;
7985;SDS011;4038;42.612;23.066;2022-12-29T11:38:48;37.20;;;34.00;;
7985;SDS011;4038;42.612;23.066;2022-12-29T11:41:26;36.97;;;33.08;;
7985;SDS011;4038;42.612;23.066;2022-12-29T11:43:57;36.42;;;32.78;;
7985;SDS011;4038;42.612;23.066;2022-12-29T11:46:28;37.08;;;34.08;;
7985;SDS011;4038;42.612;23.066;2022-12-29T11:48:57;36.25;;;32.97;;
7985;SDS011;4038;42.612;23.066;2022-12-29T11:51:29;35.58;;;32.78;;
7985;SDS011;4038;42.612;23.066;2022-12-29T11:54:06;36.70;;;33.28;;
7985;SDS011;4038;42.612;23.066;2022-12-29T11:56:41;34.63;;;31.73;;
7985;SDS011;4038;42.612;23.066;2022-12-29T12:01:52;33.90;;;31.08;;
7985;SDS011;4038;42.612;23.066;2022-12-29T12:04:19;33.33;;;30.50;;
7985;SDS011;4038;42.612;23.066;2022-12-29T12:06:49;33.53;;;30.73;;
7985;SDS011;4038;42.612;23.066;2022-12-29T12:09:25;32.90;;;30.17;;
7985;SDS011;4038;42.612;23.066;2022-12-29T12:11:57;33.00;;;29.90;;
7985;SDS011;4038;42.612;23.066;2022-12-29T12:14:41;33.55;;;30.85;;
7985;SDS011;4038;42.612;23.066;2022-12-29T12:17:16;32.92;;;30.33;;
7985;SDS011;4038;42.612;23.066;2022-12-29T12:22:27;35.85;;;32.78;;
7985;SDS011;4038;42.612;23.066;2022-12-29T12:27:31;32.88;;;30.05;;
7985;SDS011;4038;42.612;23.066;2022-12-29T12:41:16;33.08;;;30.27;;
7985;SDS011;4038;42.612;23.066;2022-12-29T12:46:59;33.88;;;31.00;;
7985;SDS011;4038;42.612;23.066;2022-12-29T12:52:38;34.47;;;31.48;;
7985;SDS011;4038;42.612;23.066;2022-12-29T13:05:41;32.00;;;29.30;;
7985;SDS011;4038;42.612;23.066;2022-12-29T13:11:06;33.05;;;30.35;;
7985;SDS011;4038;42.612;23.066;2022-12-29T13:24:27;30.67;;;28.17;;
7985;SDS011;4038;42.612;23.066;2022-12-29T13:29:43;29.05;;;26.73;;
7985;SDS011;4038;42.612;23.066;2022-12-29T13:32:44;28.25;;;26.13;;
7985;SDS011;4038;42.612;23.066;2022-12-29T13:38:00;29.75;;;27.45;;
7985;SDS011;4038;42.612;23.066;2022-12-29T13:40:38;27.55;;;25.27;;
7985;SDS011;4038;42.612;23.066;2022-12-29T13:43:08;26.67;;;24.58;;
7985;SDS011;4038;42.612;23.066;2022-12-29T13:45:37;26.90;;;24.75;;
7985;SDS011;4038;42.612;23.066;2022-12-29T13:50:39;26.50;;;24.50;;
7985;SDS011;4038;42.612;23.066;2022-12-29T13:58:58;26.65;;;24.75;;
7985;SDS011;4038;42.612;23.066;2022-12-29T14:02:09;27.08;;;24.90;;
7985;SDS011;4038;42.612;23.066;2022-12-29T14:05:03;28.30;;;26.02;;
7985;SDS011;4038;42.612;23.066;2022-12-29T14:07:56;29.25;;;25.80;;
7985;SDS011;4038;42.612;23.066;2022-12-29T14:10:27;28.50;;;26.10;;
7985;SDS011;4038;42.612;23.066;2022-12-29T14:15:45;27.73;;;25.38;;
7985;SDS011;4038;42.612;23.066;2022-12-29T14:18:20;27.50;;;25.20;;
7985;SDS011;4038;42.612;23.066;2022-12-29T14:23:42;28.08;;;25.88;;
7985;SDS011;4038;42.612;23.066;2022-12-29T14:26:11;27.42;;;25.42;;
7985;SDS011;4038;42.612;23.066;2022-12-29T14:28:48;27.63;;;25.35;;
7985;SDS011;4038;42.612;23.066;2022-12-29T14:33:39;27.77;;;25.38;;
7985;SDS011;4038;42.612;23.066;2022-12-29T14:36:19;26.60;;;24.55;;
7985;SDS011;4038;42.612;23.066;2022-12-29T14:38:47;28.17;;;25.98;;
7985;SDS011;4038;42.612;23.066;2022-12-29T14:41:55;26.92;;;24.73;;
7985;SDS011;4038;42.612;23.066;2022-12-29T14:44:18;26.00;;;24.00;;
7985;SDS011;4038;42.612;23.066;2022-12-29T14:49:24;28.00;;;25.83;;
7985;SDS011;4038;42.612;23.066;2022-12-29T14:52:04;27.95;;;25.50;;
7985;SDS011;4038;42.612;23.066;2022-12-29T14:57:07;29.70;;;27.40;;
7985;SDS011;4038;42.612;23.066;2022-12-29T14:59:43;29.25;;;26.85;;
7985;SDS011;4038;42.612;23.066;2022-12-29T15:02:19;26.30;;;24.30;;
7985;SDS011;4038;42.612;23.066;2022-12-29T15:04:47;29.58;;;27.23;;
7985;SDS011;4038;42.612;23.066;2022-12-29T15:07:13;29.20;;;26.90;;
7985;SDS011;4038;42.612;23.066;2022-12-29T15:09:41;29.38;;;26.83;;
7985;SDS011;4038;42.612;23.066;2022-12-29T15:14:56;42.65;;;38.70;;
7985;SDS011;4038;42.612;23.066;2022-12-29T15:17:24;39.08;;;35.78;;
7985;SDS011;4038;42.612;23.066;2022-12-29T15:19:50;36.95;;;33.53;;
7985;SDS011;4038;42.612;23.066;2022-12-29T15:22:16;27.73;;;25.70;;
7985;SDS011;4038;42.612;23.066;2022-12-29T15:24:45;35.45;;;32.25;;
7985;SDS011;4038;42.612;23.066;2022-12-29T15:27:13;33.20;;;30.30;;
7985;SDS011;4038;42.612;23.066;2022-12-29T15:29:41;31.90;;;29.17;;
7985;SDS011;4038;42.612;23.066;2022-12-29T15:34:45;29.75;;;27.17;;
7985;SDS011;4038;42.612;23.066;2022-12-29T15:37:17;27.42;;;25.33;;
7985;SDS011;4038;42.612;23.066;2022-12-29T15:39:48;26.55;;;24.27;;
7985;SDS011;4038;42.612;23.066;2022-12-29T15:42:26;27.02;;;25.00;;
7985;SDS011;4038;42.612;23.066;2022-12-29T15:45:13;29.90;;;27.20;;
7985;SDS011;4038;42.612;23.066;2022-12-29T15:47:42;30.52;;;27.48;;
7985;SDS011;4038;42.612;23.066;2022-12-29T15:50:25;28.77;;;26.13;;
7985;SDS011;4038;42.612;23.066;2022-12-29T15:52:53;29.45;;;27.17;;
7985;SDS011;4038;42.612;23.066;2022-12-29T15:55:20;28.77;;;26.38;;
7985;SDS011;4038;42.612;23.066;2022-12-29T15:57:57;31.55;;;28.38;;
7985;SDS011;4038;42.612;23.066;2022-12-29T16:00:30;33.60;;;29.63;;
7985;SDS011;4038;42.612;23.066;2022-12-29T16:03:00;32.90;;;29.88;;
7985;SDS011;4038;42.612;23.066;2022-12-29T16:05:34;33.15;;;29.95;;
7985;SDS011;4038;42.612;23.066;2022-12-29T16:08:01;32.78;;;29.88;;
7985;SDS011;4038;42.612;23.066;2022-12-29T16:10:32;34.42;;;30.20;;
7985;SDS011;4038;42.612;23.066;2022-12-29T16:13:14;38.03;;;31.63;;
7985;SDS011;4038;42.612;23.066;2022-12-29T16:15:49;35.40;;;31.58;;
7985;SDS011;4038;42.612;23.066;2022-12-29T16:18:23;39.33;;;31.55;;
7985;SDS011;4038;42.612;23.066;2022-12-29T16:20:52;48.45;;;33.75;;
7985;SDS011;4038;42.612;23.066;2022-12-29T16:23:20;47.15;;;33.10;;
7985;SDS011;4038;42.612;23.066;2022-12-29T16:25:48;57.42;;;35.22;;
7985;SDS011;4038;42.612;23.066;2022-12-29T16:28:25;49.70;;;34.47;;
7985;SDS011;4038;42.612;23.066;2022-12-29T16:31:04;44.20;;;31.80;;
7985;SDS011;4038;42.612;23.066;2022-12-29T16:33:44;46.97;;;33.67;;
7985;SDS011;4038;42.612;23.066;2022-12-29T16:36:22;39.15;;;29.70;;
7985;SDS011;4038;42.612;23.066;2022-12-29T16:41:49;39.78;;;34.30;;
7985;SDS011;4038;42.612;23.066;2022-12-29T16:44:25;34.65;;;31.25;;
7985;SDS011;4038;42.612;23.066;2022-12-29T16:49:36;36.15;;;32.33;;
7985;SDS011;4038;42.612;23.066;2022-12-29T16:52:13;35.17;;;31.65;;
7985;SDS011;4038;42.612;23.066;2022-12-29T16:54:48;35.83;;;31.90;;
7985;SDS011;4038;42.612;23.066;2022-12-29T16:57:20;36.75;;;32.85;;
7985;SDS011;4038;42.612;23.066;2022-12-29T16:59:48;35.45;;;31.95;;
7985;SDS011;4038;42.612;23.066;2022-12-29T17:02:19;35.85;;;32.58;;
7985;SDS011;4038;42.612;23.066;2022-12-29T17:04:48;37.65;;;33.75;;
7985;SDS011;4038;42.612;23.066;2022-12-29T17:07:19;34.33;;;30.73;;
7985;SDS011;4038;42.612;23.066;2022-12-29T17:09:49;36.05;;;32.65;;
7985;SDS011;4038;42.612;23.066;2022-12-29T17:12:19;40.40;;;36.10;;
7985;SDS011;4038;42.612;23.066;2022-12-29T17:14:52;34.17;;;31.20;;
7985;SDS011;4038;42.612;23.066;2022-12-29T17:19:54;29.85;;;27.25;;
7985;SDS011;4038;42.612;23.066;2022-12-29T17:22:24;30.92;;;28.08;;
7985;SDS011;4038;42.612;23.066;2022-12-29T17:24:54;33.97;;;30.55;;
7985;SDS011;4038;42.612;23.066;2022-12-29T17:27:23;33.22;;;29.25;;
7985;SDS011;4038;42.612;23.066;2022-12-29T17:29:51;38.78;;;30.58;;
7985;SDS011;4038;42.612;23.066;2022-12-29T17:32:19;39.53;;;29.75;;
7985;SDS011;4038;42.612;23.066;2022-12-29T17:34:45;35.72;;;29.48;;
7985;SDS011;4038;42.612;23.066;2022-12-29T17:37:25;32.97;;;29.75;;